Main page
METAR-TAF:

METAR-TAF

Airports :

Skopje "Alexander the Great" Airport

Skopje, Macedonia

latitude: 41-58N, longitude: 021-39E, elevation: 238 m

Current weather observation

The report was made 26 minutes ago, at 13:00 UTC
Wind 2 kt from the North
Temperature 30°C
Humidity 27%
Pressure 1016 hPa
Visibility 10 km or more
no clouds below 1500 m and no cumulonimbus

METAR: LWSK 211300Z 35002KT CAVOK 30/09 Q1016 NOSIG

Time: 15:26 (13:26 UTC)

Forecast

The report was made 4 hours and 56 minutes ago, at 08:30 UTC
Forecast valid from 21 at 09 UTC to 22 at 09 UTC
Wind 2 kt from variable directions
Visibility 10 km or more
no clouds below 1500 m and no cumulonimbus
Temporary
from 21 at 11 UTC to 21 at 16 UTC
Wind 10 kt from the Southeast
Few clouds at a height of 5000 ft

TAF: LWSK 210830Z 2109/2209 VRB02KT CAVOK TEMPO 2111/2116 14010KT FEW050

Weather observations and forecasts of more than 4000 airports (METAR and TAF reports).

The available stations are represented by yellow and red dots on the map.

Hover mouse over dot to see the name of the station.

Then click to see weather observations and forecasts.

To change the map : click on the green buttons with a black cross to zoom in, on the green button with a dash to zoom out, or on the green arrows for adjacent maps.


METAR-TAF: